sensor_id;sensor_type;location;lat;lon;timestamp;P1;durP1;ratioP1;P2;durP2;ratioP2
43098;SDS011;28715;51.988;6.020;2022-11-06T00:00:22;16.27;;;8.83;;
43098;SDS011;28715;51.988;6.020;2022-11-06T00:02:48;13.77;;;8.57;;
43098;SDS011;28715;51.988;6.020;2022-11-06T00:05:13;16.00;;;8.50;;
43098;SDS011;28715;51.988;6.020;2022-11-06T00:07:58;12.57;;;8.13;;
43098;SDS011;28715;51.988;6.020;2022-11-06T00:10:23;14.97;;;8.30;;
43098;SDS011;28715;51.988;6.020;2022-11-06T00:12:49;16.93;;;8.13;;
43098;SDS011;28715;51.988;6.020;2022-11-06T00:15:14;18.30;;;7.53;;
43098;SDS011;28715;51.988;6.020;2022-11-06T00:17:40;15.00;;;8.03;;
43098;SDS011;28715;51.988;6.020;2022-11-06T00:20:06;15.97;;;8.37;;
43098;SDS011;28715;51.988;6.020;2022-11-06T00:22:32;12.63;;;7.47;;
43098;SDS011;28715;51.988;6.020;2022-11-06T00:24:59;14.45;;;8.27;;
43098;SDS011;28715;51.988;6.020;2022-11-06T00:27:24;11.97;;;7.90;;
43098;SDS011;28715;51.988;6.020;2022-11-06T00:29:51;15.07;;;8.18;;
43098;SDS011;28715;51.988;6.020;2022-11-06T00:32:16;15.10;;;8.20;;
43098;SDS011;28715;51.988;6.020;2022-11-06T00:34:42;13.30;;;7.77;;
43098;SDS011;28715;51.988;6.020;2022-11-06T00:37:07;13.47;;;7.60;;
43098;SDS011;28715;51.988;6.020;2022-11-06T00:39:33;18.30;;;7.90;;
43098;SDS011;28715;51.988;6.020;2022-11-06T00:41:58;13.87;;;8.00;;
43098;SDS011;28715;51.988;6.020;2022-11-06T00:44:24;13.13;;;7.77;;
43098;SDS011;28715;51.988;6.020;2022-11-06T00:46:49;13.23;;;7.77;;
43098;SDS011;28715;51.988;6.020;2022-11-06T00:49:15;15.23;;;7.50;;
43098;SDS011;28715;51.988;6.020;2022-11-06T00:51:40;17.00;;;7.87;;
43098;SDS011;28715;51.988;6.020;2022-11-06T00:54:08;12.60;;;7.32;;
43098;SDS011;28715;51.988;6.020;2022-11-06T00:56:35;12.98;;;6.70;;
43098;SDS011;28715;51.988;6.020;2022-11-06T00:59:02;15.40;;;7.00;;
43098;SDS011;28715;51.988;6.020;2022-11-06T01:01:30;13.05;;;6.57;;
43098;SDS011;28715;51.988;6.020;2022-11-06T01:04:04;16.30;;;7.28;;
43098;SDS011;28715;51.988;6.020;2022-11-06T01:06:35;14.48;;;6.63;;
43098;SDS011;28715;51.988;6.020;2022-11-06T01:09:03;14.48;;;6.93;;
43098;SDS011;28715;51.988;6.020;2022-11-06T01:11:30;12.88;;;6.57;;
43098;SDS011;28715;51.988;6.020;2022-11-06T01:13:58;14.65;;;6.50;;
43098;SDS011;28715;51.988;6.020;2022-11-06T01:16:25;15.40;;;7.15;;
43098;SDS011;28715;51.988;6.020;2022-11-06T01:18:57;15.45;;;6.90;;
43098;SDS011;28715;51.988;6.020;2022-11-06T01:21:26;12.40;;;6.55;;
43098;SDS011;28715;51.988;6.020;2022-11-06T01:23:54;12.15;;;6.32;;
43098;SDS011;28715;51.988;6.020;2022-11-06T01:26:21;14.80;;;7.30;;
43098;SDS011;28715;51.988;6.020;2022-11-06T01:28:47;11.98;;;6.50;;
43098;SDS011;28715;51.988;6.020;2022-11-06T01:31:15;13.13;;;6.57;;
43098;SDS011;28715;51.988;6.020;2022-11-06T01:33:43;10.77;;;5.93;;
43098;SDS011;28715;51.988;6.020;2022-11-06T01:36:09;14.27;;;6.32;;
43098;SDS011;28715;51.988;6.020;2022-11-06T01:38:39;13.87;;;6.30;;
43098;SDS011;28715;51.988;6.020;2022-11-06T01:41:06;13.77;;;5.57;;
43098;SDS011;28715;51.988;6.020;2022-11-06T01:46:18;10.82;;;5.88;;
43098;SDS011;28715;51.988;6.020;2022-11-06T01:48:47;12.93;;;5.22;;
43098;SDS011;28715;51.988;6.020;2022-11-06T01:51:22;10.85;;;5.30;;
43098;SDS011;28715;51.988;6.020;2022-11-06T01:53:50;12.88;;;5.72;;
43098;SDS011;28715;51.988;6.020;2022-11-06T01:56:16;11.27;;;6.10;;
43098;SDS011;28715;51.988;6.020;2022-11-06T01:58:44;14.05;;;5.60;;
43098;SDS011;28715;51.988;6.020;2022-11-06T02:01:11;12.60;;;5.82;;
43098;SDS011;28715;51.988;6.020;2022-11-06T02:03:37;9.43;;;5.68;;
43098;SDS011;28715;51.988;6.020;2022-11-06T02:06:08;12.55;;;5.53;;
43098;SDS011;28715;51.988;6.020;2022-11-06T02:08:34;10.25;;;5.40;;
43098;SDS011;28715;51.988;6.020;2022-11-06T02:11:00;10.40;;;5.27;;
43098;SDS011;28715;51.988;6.020;2022-11-06T02:13:30;11.57;;;5.60;;
43098;SDS011;28715;51.988;6.020;2022-11-06T02:16:25;13.90;;;5.22;;
43098;SDS011;28715;51.988;6.020;2022-11-06T02:19:14;13.90;;;5.40;;
43098;SDS011;28715;51.988;6.020;2022-11-06T02:22:59;11.35;;;4.50;;
43098;SDS011;28715;51.988;6.020;2022-11-06T02:25:00;12.45;;;5.40;;
43098;SDS011;28715;51.988;6.020;2022-11-06T02:27:40;9.27;;;4.35;;
43098;SDS011;28715;51.988;6.020;2022-11-06T02:30:11;9.98;;;4.85;;
43098;SDS011;28715;51.988;6.020;2022-11-06T02:32:49;11.55;;;4.95;;
43098;SDS011;28715;51.988;6.020;2022-11-06T02:35:22;12.27;;;4.75;;
43098;SDS011;28715;51.988;6.020;2022-11-06T02:38:00;10.52;;;4.28;;
43098;SDS011;28715;51.988;6.020;2022-11-06T02:40:32;12.13;;;5.20;;
43098;SDS011;28715;51.988;6.020;2022-11-06T02:43:02;10.57;;;4.30;;
43098;SDS011;28715;51.988;6.020;2022-11-06T02:45:31;12.60;;;4.72;;
43098;SDS011;28715;51.988;6.020;2022-11-06T02:48:03;9.68;;;4.10;;
43098;SDS011;28715;51.988;6.020;2022-11-06T02:50:35;11.38;;;4.07;;
43098;SDS011;28715;51.988;6.020;2022-11-06T02:53:07;12.27;;;4.80;;
43098;SDS011;28715;51.988;6.020;2022-11-06T02:55:36;9.15;;;4.22;;
43098;SDS011;28715;51.988;6.020;2022-11-06T02:58:05;10.55;;;3.97;;
43098;SDS011;28715;51.988;6.020;2022-11-06T03:00:47;9.82;;;4.30;;
43098;SDS011;28715;51.988;6.020;2022-11-06T03:03:29;9.23;;;3.92;;
43098;SDS011;28715;51.988;6.020;2022-11-06T03:05:57;10.63;;;4.13;;
43098;SDS011;28715;51.988;6.020;2022-11-06T03:08:35;10.57;;;4.05;;
43098;SDS011;28715;51.988;6.020;2022-11-06T03:11:22;7.90;;;3.65;;
43098;SDS011;28715;51.988;6.020;2022-11-06T03:19:29;10.45;;;3.70;;
43098;SDS011;28715;51.988;6.020;2022-11-06T03:30:41;8.43;;;4.15;;
43098;SDS011;28715;51.988;6.020;2022-11-06T03:33:14;9.75;;;3.60;;
43098;SDS011;28715;51.988;6.020;2022-11-06T03:35:42;9.77;;;3.40;;
43098;SDS011;28715;51.988;6.020;2022-11-06T03:38:34;10.63;;;3.30;;
43098;SDS011;28715;51.988;6.020;2022-11-06T03:41:01;11.23;;;3.38;;
43098;SDS011;28715;51.988;6.020;2022-11-06T03:43:36;7.45;;;3.33;;
43098;SDS011;28715;51.988;6.020;2022-11-06T03:46:05;10.07;;;3.30;;
43098;SDS011;28715;51.988;6.020;2022-11-06T03:48:43;11.05;;;3.50;;
43098;SDS011;28715;51.988;6.020;2022-11-06T03:51:17;11.88;;;3.20;;
43098;SDS011;28715;51.988;6.020;2022-11-06T03:53:50;10.35;;;3.30;;
43098;SDS011;28715;51.988;6.020;2022-11-06T03:56:22;8.45;;;2.78;;
43098;SDS011;28715;51.988;6.020;2022-11-06T03:58:52;10.60;;;3.80;;
43098;SDS011;28715;51.988;6.020;2022-11-06T04:01:21;10.40;;;3.10;;
43098;SDS011;28715;51.988;6.020;2022-11-06T04:03:56;8.30;;;2.58;;
43098;SDS011;28715;51.988;6.020;2022-11-06T04:08:57;10.65;;;2.92;;
43098;SDS011;28715;51.988;6.020;2022-11-06T04:11:43;9.73;;;3.35;;
43098;SDS011;28715;51.988;6.020;2022-11-06T04:14:28;9.90;;;3.05;;
43098;SDS011;28715;51.988;6.020;2022-11-06T04:16:57;10.27;;;2.85;;
43098;SDS011;28715;51.988;6.020;2022-11-06T04:19:27;10.65;;;2.85;;
43098;SDS011;28715;51.988;6.020;2022-11-06T04:30:31;7.88;;;2.80;;
43098;SDS011;28715;51.988;6.020;2022-11-06T04:33:09;8.50;;;3.20;;
43098;SDS011;28715;51.988;6.020;2022-11-06T04:38:50;8.98;;;2.85;;
43098;SDS011;28715;51.988;6.020;2022-11-06T04:41:32;13.02;;;3.67;;
43098;SDS011;28715;51.988;6.020;2022-11-06T04:44:12;6.68;;;2.53;;
43098;SDS011;28715;51.988;6.020;2022-11-06T04:46:53;10.77;;;3.20;;
43098;SDS011;28715;51.988;6.020;2022-11-06T04:49:22;10.80;;;2.97;;
43098;SDS011;28715;51.988;6.020;2022-11-06T04:51:50;10.77;;;3.38;;
43098;SDS011;28715;51.988;6.020;2022-11-06T04:54:16;9.93;;;2.97;;
43098;SDS011;28715;51.988;6.020;2022-11-06T04:56:43;7.80;;;2.80;;
43098;SDS011;28715;51.988;6.020;2022-11-06T04:59:09;8.20;;;2.57;;
43098;SDS011;28715;51.988;6.020;2022-11-06T05:01:39;10.27;;;3.10;;
43098;SDS011;28715;51.988;6.020;2022-11-06T05:04:04;9.47;;;2.80;;
43098;SDS011;28715;51.988;6.020;2022-11-06T05:06:30;9.73;;;2.57;;
43098;SDS011;28715;51.988;6.020;2022-11-06T05:08:56;8.20;;;2.93;;
43098;SDS011;28715;51.988;6.020;2022-11-06T05:11:22;10.70;;;3.30;;
43098;SDS011;28715;51.988;6.020;2022-11-06T05:13:48;10.20;;;2.70;;
43098;SDS011;28715;51.988;6.020;2022-11-06T05:16:14;9.73;;;2.80;;
43098;SDS011;28715;51.988;6.020;2022-11-06T05:18:39;10.77;;;2.53;;
43098;SDS011;28715;51.988;6.020;2022-11-06T05:21:05;8.00;;;2.50;;
43098;SDS011;28715;51.988;6.020;2022-11-06T05:23:49;11.45;;;2.90;;
43098;SDS011;28715;51.988;6.020;2022-11-06T05:26:14;11.70;;;2.80;;
43098;SDS011;28715;51.988;6.020;2022-11-06T05:28:40;11.63;;;2.43;;
43098;SDS011;28715;51.988;6.020;2022-11-06T05:31:05;10.87;;;3.00;;
43098;SDS011;28715;51.988;6.020;2022-11-06T05:33:31;7.30;;;2.50;;
43098;SDS011;28715;51.988;6.020;2022-11-06T05:36:01;10.23;;;2.97;;
43098;SDS011;28715;51.988;6.020;2022-11-06T05:38:27;11.25;;;2.65;;
43098;SDS011;28715;51.988;6.020;2022-11-06T05:40:53;8.97;;;2.53;;
43098;SDS011;28715;51.988;6.020;2022-11-06T05:43:19;9.93;;;3.27;;
43098;SDS011;28715;51.988;6.020;2022-11-06T05:45:44;9.27;;;3.00;;
43098;SDS011;28715;51.988;6.020;2022-11-06T05:48:10;11.30;;;3.07;;
43098;SDS011;28715;51.988;6.020;2022-11-06T05:50:35;7.70;;;2.60;;
43098;SDS011;28715;51.988;6.020;2022-11-06T05:53:01;7.27;;;2.60;;
43098;SDS011;28715;51.988;6.020;2022-11-06T05:55:26;8.77;;;2.57;;
43098;SDS011;28715;51.988;6.020;2022-11-06T05:57:52;10.67;;;3.00;;
43098;SDS011;28715;51.988;6.020;2022-11-06T06:00:17;7.83;;;3.07;;
43098;SDS011;28715;51.988;6.020;2022-11-06T06:02:43;10.17;;;2.90;;
43098;SDS011;28715;51.988;6.020;2022-11-06T06:05:09;10.07;;;2.67;;
43098;SDS011;28715;51.988;6.020;2022-11-06T06:07:35;7.40;;;2.90;;
43098;SDS011;28715;51.988;6.020;2022-11-06T06:10:00;11.07;;;3.03;;
43098;SDS011;28715;51.988;6.020;2022-11-06T06:12:26;9.87;;;2.40;;
43098;SDS011;28715;51.988;6.020;2022-11-06T06:14:52;9.40;;;2.70;;
43098;SDS011;28715;51.988;6.020;2022-11-06T06:17:18;10.23;;;2.72;;
43098;SDS011;28715;51.988;6.020;2022-11-06T06:19:44;7.78;;;2.70;;
43098;SDS011;28715;51.988;6.020;2022-11-06T06:22:10;8.27;;;2.47;;
43098;SDS011;28715;51.988;6.020;2022-11-06T06:24:36;9.63;;;2.97;;
43098;SDS011;28715;51.988;6.020;2022-11-06T06:27:02;8.07;;;2.50;;
43098;SDS011;28715;51.988;6.020;2022-11-06T06:29:27;9.77;;;2.47;;
43098;SDS011;28715;51.988;6.020;2022-11-06T06:31:53;8.90;;;3.07;;
43098;SDS011;28715;51.988;6.020;2022-11-06T06:34:19;8.90;;;2.90;;
43098;SDS011;28715;51.988;6.020;2022-11-06T06:36:47;7.90;;;2.80;;
43098;SDS011;28715;51.988;6.020;2022-11-06T06:39:18;10.27;;;2.40;;
43098;SDS011;28715;51.988;6.020;2022-11-06T06:41:44;8.80;;;2.25;;
43098;SDS011;28715;51.988;6.020;2022-11-06T06:44:13;9.75;;;2.65;;
43098;SDS011;28715;51.988;6.020;2022-11-06T06:46:39;9.57;;;2.55;;
43098;SDS011;28715;51.988;6.020;2022-11-06T06:49:05;6.83;;;2.67;;
43098;SDS011;28715;51.988;6.020;2022-11-06T06:51:36;12.15;;;3.03;;
43098;SDS011;28715;51.988;6.020;2022-11-06T06:54:04;9.40;;;2.38;;
43098;SDS011;28715;51.988;6.020;2022-11-06T06:56:32;10.77;;;2.67;;
43098;SDS011;28715;51.988;6.020;2022-11-06T06:59:29;8.60;;;2.53;;
43098;SDS011;28715;51.988;6.020;2022-11-06T07:02:10;6.80;;;2.47;;
43098;SDS011;28715;51.988;6.020;2022-11-06T07:04:39;8.63;;;2.77;;
43098;SDS011;28715;51.988;6.020;2022-11-06T07:07:04;9.73;;;2.58;;
43098;SDS011;28715;51.988;6.020;2022-11-06T07:09:30;6.13;;;2.30;;
43098;SDS011;28715;51.988;6.020;2022-11-06T07:11:56;7.20;;;2.35;;
43098;SDS011;28715;51.988;6.020;2022-11-06T07:14:22;11.27;;;2.60;;
43098;SDS011;28715;51.988;6.020;2022-11-06T07:16:48;6.63;;;2.60;;
43098;SDS011;28715;51.988;6.020;2022-11-06T07:19:13;7.30;;;2.50;;
43098;SDS011;28715;51.988;6.020;2022-11-06T07:21:39;7.63;;;2.47;;
43098;SDS011;28715;51.988;6.020;2022-11-06T07:24:04;8.10;;;2.53;;
43098;SDS011;28715;51.988;6.020;2022-11-06T07:26:30;7.83;;;2.30;;
43098;SDS011;28715;51.988;6.020;2022-11-06T07:28:56;7.23;;;2.53;;
43098;SDS011;28715;51.988;6.020;2022-11-06T07:31:21;8.50;;;2.70;;
43098;SDS011;28715;51.988;6.020;2022-11-06T07:33:47;9.10;;;2.20;;
43098;SDS011;28715;51.988;6.020;2022-11-06T07:36:12;7.00;;;2.30;;
43098;SDS011;28715;51.988;6.020;2022-11-06T07:38:39;6.50;;;1.90;;
43098;SDS011;28715;51.988;6.020;2022-11-06T07:41:07;8.07;;;2.25;;
43098;SDS011;28715;51.988;6.020;2022-11-06T07:43:34;6.78;;;2.45;;
43098;SDS011;28715;51.988;6.020;2022-11-06T07:46:01;10.10;;;2.45;;
43098;SDS011;28715;51.988;6.020;2022-11-06T07:48:29;9.23;;;2.83;;
43098;SDS011;28715;51.988;6.020;2022-11-06T07:50:56;9.15;;;2.20;;
43098;SDS011;28715;51.988;6.020;2022-11-06T07:53:22;7.45;;;2.08;;
43098;SDS011;28715;51.988;6.020;2022-11-06T07:55:51;13.55;;;2.65;;
43098;SDS011;28715;51.988;6.020;2022-11-06T07:58:20;9.35;;;2.38;;
43098;SDS011;28715;51.988;6.020;2022-11-06T08:00:47;11.63;;;2.97;;
43098;SDS011;28715;51.988;6.020;2022-11-06T08:03:13;9.65;;;2.53;;
43098;SDS011;28715;51.988;6.020;2022-11-06T08:05:39;8.87;;;2.43;;
43098;SDS011;28715;51.988;6.020;2022-11-06T08:08:04;9.83;;;2.20;;
43098;SDS011;28715;51.988;6.020;2022-11-06T08:10:30;9.33;;;2.40;;
43098;SDS011;28715;51.988;6.020;2022-11-06T08:12:57;12.60;;;2.10;;
43098;SDS011;28715;51.988;6.020;2022-11-06T08:15:24;5.93;;;1.70;;
43098;SDS011;28715;51.988;6.020;2022-11-06T08:17:49;6.93;;;2.17;;
43098;SDS011;28715;51.988;6.020;2022-11-06T08:20:15;6.77;;;1.97;;
43098;SDS011;28715;51.988;6.020;2022-11-06T08:22:40;9.13;;;1.83;;
43098;SDS011;28715;51.988;6.020;2022-11-06T08:25:06;9.03;;;2.10;;
43098;SDS011;28715;51.988;6.020;2022-11-06T08:27:33;8.23;;;1.75;;
43098;SDS011;28715;51.988;6.020;2022-11-06T08:29:58;7.50;;;1.93;;
43098;SDS011;28715;51.988;6.020;2022-11-06T08:32:24;7.63;;;1.93;;
43098;SDS011;28715;51.988;6.020;2022-11-06T08:34:49;8.33;;;2.00;;
43098;SDS011;28715;51.988;6.020;2022-11-06T08:37:15;7.33;;;1.97;;
43098;SDS011;28715;51.988;6.020;2022-11-06T08:39:40;8.23;;;2.00;;
43098;SDS011;28715;51.988;6.020;2022-11-06T08:42:06;6.50;;;1.80;;
43098;SDS011;28715;51.988;6.020;2022-11-06T08:44:31;7.00;;;2.33;;
43098;SDS011;28715;51.988;6.020;2022-11-06T08:46:57;6.63;;;2.07;;
43098;SDS011;28715;51.988;6.020;2022-11-06T08:49:22;6.60;;;1.80;;
43098;SDS011;28715;51.988;6.020;2022-11-06T08:51:48;5.77;;;2.10;;
43098;SDS011;28715;51.988;6.020;2022-11-06T08:54:13;6.27;;;2.00;;
43098;SDS011;28715;51.988;6.020;2022-11-06T08:56:39;6.47;;;1.90;;
43098;SDS011;28715;51.988;6.020;2022-11-06T08:59:05;8.00;;;2.60;;
43098;SDS011;28715;51.988;6.020;2022-11-06T09:01:30;7.57;;;2.00;;
43098;SDS011;28715;51.988;6.020;2022-11-06T09:03:56;7.83;;;2.10;;
43098;SDS011;28715;51.988;6.020;2022-11-06T09:06:21;10.23;;;4.23;;
43098;SDS011;28715;51.988;6.020;2022-11-06T09:08:47;6.27;;;2.50;;
43098;SDS011;28715;51.988;6.020;2022-11-06T09:11:12;6.57;;;2.20;;
43098;SDS011;28715;51.988;6.020;2022-11-06T09:13:38;9.60;;;2.60;;
43098;SDS011;28715;51.988;6.020;2022-11-06T09:16:04;9.70;;;3.80;;
43098;SDS011;28715;51.988;6.020;2022-11-06T09:18:30;9.93;;;3.30;;
43098;SDS011;28715;51.988;6.020;2022-11-06T09:20:56;9.77;;;2.07;;
43098;SDS011;28715;51.988;6.020;2022-11-06T09:23:22;9.65;;;2.50;;
43098;SDS011;28715;51.988;6.020;2022-11-06T09:25:48;8.70;;;3.53;;
43098;SDS011;28715;51.988;6.020;2022-11-06T09:28:13;8.63;;;2.50;;
43098;SDS011;28715;51.988;6.020;2022-11-06T09:30:39;7.43;;;2.10;;
43098;SDS011;28715;51.988;6.020;2022-11-06T09:33:05;9.17;;;3.70;;
43098;SDS011;28715;51.988;6.020;2022-11-06T09:35:31;11.13;;;3.70;;
43098;SDS011;28715;51.988;6.020;2022-11-06T09:45:38;6.90;;;1.70;;
43098;SDS011;28715;51.988;6.020;2022-11-06T09:50:34;7.47;;;2.22;;
43098;SDS011;28715;51.988;6.020;2022-11-06T09:53:05;6.20;;;1.90;;
43098;SDS011;28715;51.988;6.020;2022-11-06T09:55:40;7.15;;;3.53;;
43098;SDS011;28715;51.988;6.020;2022-11-06T09:58:11;6.47;;;1.98;;
43098;SDS011;28715;51.988;6.020;2022-11-06T10:00:44;8.05;;;1.98;;
43098;SDS011;28715;51.988;6.020;2022-11-06T10:03:15;6.93;;;1.67;;
43098;SDS011;28715;51.988;6.020;2022-11-06T10:05:54;7.25;;;1.83;;
43098;SDS011;28715;51.988;6.020;2022-11-06T10:08:24;9.10;;;2.37;;
43098;SDS011;28715;51.988;6.020;2022-11-06T10:22:18;8.32;;;1.98;;
43098;SDS011;28715;51.988;6.020;2022-11-06T10:24:43;7.93;;;2.05;;
43098;SDS011;28715;51.988;6.020;2022-11-06T10:27:57;7.10;;;1.75;;
43098;SDS011;28715;51.988;6.020;2022-11-06T10:30:12;8.95;;;1.92;;
43098;SDS011;28715;51.988;6.020;2022-11-06T10:35:37;7.80;;;1.63;;
43098;SDS011;28715;51.988;6.020;2022-11-06T10:38:13;8.20;;;1.75;;
43098;SDS011;28715;51.988;6.020;2022-11-06T10:40:45;9.43;;;1.90;;
43098;SDS011;28715;51.988;6.020;2022-11-06T10:43:23;6.32;;;1.65;;
43098;SDS011;28715;51.988;6.020;2022-11-06T10:54:45;11.30;;;1.40;;
43098;SDS011;28715;51.988;6.020;2022-11-06T10:57:36;4.93;;;1.60;;
43098;SDS011;28715;51.988;6.020;2022-11-06T11:00:10;5.35;;;1.38;;
43098;SDS011;28715;51.988;6.020;2022-11-06T11:02:47;6.18;;;1.52;;
43098;SDS011;28715;51.988;6.020;2022-11-06T11:05:17;6.97;;;2.50;;
43098;SDS011;28715;51.988;6.020;2022-11-06T11:07:45;5.63;;;1.30;;
43098;SDS011;28715;51.988;6.020;2022-11-06T11:12:47;9.40;;;1.80;;
43098;SDS011;28715;51.988;6.020;2022-11-06T11:15:15;12.73;;;4.40;;
43098;SDS011;28715;51.988;6.020;2022-11-06T11:17:43;17.02;;;7.13;;
43098;SDS011;28715;51.988;6.020;2022-11-06T11:20:34;7.75;;;2.08;;
43098;SDS011;28715;51.988;6.020;2022-11-06T11:25:41;7.35;;;1.20;;
43098;SDS011;28715;51.988;6.020;2022-11-06T11:28:51;7.43;;;1.48;;
43098;SDS011;28715;51.988;6.020;2022-11-06T11:31:06;8.98;;;1.40;;
43098;SDS011;28715;51.988;6.020;2022-11-06T11:33:37;8.10;;;1.70;;
43098;SDS011;28715;51.988;6.020;2022-11-06T11:36:04;8.88;;;1.63;;
43098;SDS011;28715;51.988;6.020;2022-11-06T11:38:36;5.57;;;1.27;;
43098;SDS011;28715;51.988;6.020;2022-11-06T11:41:20;4.65;;;1.50;;
43098;SDS011;28715;51.988;6.020;2022-11-06T11:44:03;6.53;;;1.50;;
43098;SDS011;28715;51.988;6.020;2022-11-06T11:46:34;6.63;;;1.20;;
43098;SDS011;28715;51.988;6.020;2022-11-06T11:49:24;8.57;;;1.20;;
43098;SDS011;28715;51.988;6.020;2022-11-06T11:51:57;6.85;;;1.33;;
43098;SDS011;28715;51.988;6.020;2022-11-06T11:54:26;5.75;;;1.60;;
43098;SDS011;28715;51.988;6.020;2022-11-06T11:59:23;5.72;;;1.27;;
43098;SDS011;28715;51.988;6.020;2022-11-06T12:05:07;8.55;;;2.30;;
43098;SDS011;28715;51.988;6.020;2022-11-06T12:07:39;8.05;;;1.33;;
43098;SDS011;28715;51.988;6.020;2022-11-06T12:10:20;5.70;;;1.55;;
43098;SDS011;28715;51.988;6.020;2022-11-06T12:13:00;6.00;;;1.67;;
43098;SDS011;28715;51.988;6.020;2022-11-06T12:18:17;8.05;;;2.42;;
43098;SDS011;28715;51.988;6.020;2022-11-06T12:20:50;6.72;;;1.73;;
43098;SDS011;28715;51.988;6.020;2022-11-06T12:23:33;8.07;;;1.70;;
43098;SDS011;28715;51.988;6.020;2022-11-06T12:28:48;7.72;;;3.33;;
43098;SDS011;28715;51.988;6.020;2022-11-06T12:31:58;5.80;;;1.30;;
43098;SDS011;28715;51.988;6.020;2022-11-06T12:40:28;5.20;;;1.48;;
43098;SDS011;28715;51.988;6.020;2022-11-06T12:50:58;6.53;;;1.13;;
43098;SDS011;28715;51.988;6.020;2022-11-06T13:01:10;6.87;;;1.47;;
43098;SDS011;28715;51.988;6.020;2022-11-06T13:09:03;7.05;;;1.77;;
43098;SDS011;28715;51.988;6.020;2022-11-06T13:14:20;5.65;;;1.20;;
43098;SDS011;28715;51.988;6.020;2022-11-06T13:16:59;6.60;;;1.33;;
43098;SDS011;28715;51.988;6.020;2022-11-06T13:22:37;6.90;;;1.48;;
43098;SDS011;28715;51.988;6.020;2022-11-06T13:25:27;6.43;;;1.38;;
43098;SDS011;28715;51.988;6.020;2022-11-06T13:30:53;13.63;;;1.40;;
43098;SDS011;28715;51.988;6.020;2022-11-06T13:33:22;5.35;;;1.42;;
43098;SDS011;28715;51.988;6.020;2022-11-06T13:35:54;9.98;;;3.00;;
43098;SDS011;28715;51.988;6.020;2022-11-06T13:38:32;5.13;;;1.38;;
43098;SDS011;28715;51.988;6.020;2022-11-06T13:41:02;7.78;;;1.38;;
43098;SDS011;28715;51.988;6.020;2022-11-06T13:43:42;5.82;;;1.20;;
43098;SDS011;28715;51.988;6.020;2022-11-06T13:46:14;5.15;;;1.55;;
43098;SDS011;28715;51.988;6.020;2022-11-06T13:57:21;11.05;;;3.00;;
43098;SDS011;28715;51.988;6.020;2022-11-06T14:08:05;4.57;;;1.00;;
43098;SDS011;28715;51.988;6.020;2022-11-06T14:10:37;6.82;;;1.42;;
43098;SDS011;28715;51.988;6.020;2022-11-06T14:13:11;7.32;;;1.52;;
43098;SDS011;28715;51.988;6.020;2022-11-06T14:15:39;5.68;;;1.20;;
43098;SDS011;28715;51.988;6.020;2022-11-06T14:18:12;4.25;;;1.15;;
43098;SDS011;28715;51.988;6.020;2022-11-06T14:20:45;4.25;;;1.00;;
43098;SDS011;28715;51.988;6.020;2022-11-06T14:26:01;5.00;;;1.35;;
43098;SDS011;28715;51.988;6.020;2022-11-06T14:28:35;5.05;;;1.38;;
43098;SDS011;28715;51.988;6.020;2022-11-06T14:31:08;7.07;;;1.10;;
43098;SDS011;28715;51.988;6.020;2022-11-06T14:36:16;4.90;;;1.10;;
43098;SDS011;28715;51.988;6.020;2022-11-06T14:38:51;6.55;;;1.17;;
43098;SDS011;28715;51.988;6.020;2022-11-06T14:46:50;3.55;;;0.93;;
43098;SDS011;28715;51.988;6.020;2022-11-06T14:49:25;5.28;;;0.90;;
43098;SDS011;28715;51.988;6.020;2022-11-06T14:51:57;6.28;;;1.02;;
43098;SDS011;28715;51.988;6.020;2022-11-06T14:54:31;4.93;;;1.02;;
43098;SDS011;28715;51.988;6.020;2022-11-06T14:56:59;6.40;;;1.25;;
43098;SDS011;28715;51.988;6.020;2022-11-06T14:59:32;6.67;;;1.10;;
43098;SDS011;28715;51.988;6.020;2022-11-06T15:02:22;5.25;;;0.95;;
43098;SDS011;28715;51.988;6.020;2022-11-06T15:04:52;7.28;;;1.30;;
43098;SDS011;28715;51.988;6.020;2022-11-06T15:10:03;4.35;;;1.15;;
43098;SDS011;28715;51.988;6.020;2022-11-06T15:15:33;6.75;;;1.60;;
43098;SDS011;28715;51.988;6.020;2022-11-06T15:17:59;7.50;;;1.48;;
43098;SDS011;28715;51.988;6.020;2022-11-06T15:20:27;6.63;;;1.30;;
43098;SDS011;28715;51.988;6.020;2022-11-06T15:22:57;5.32;;;1.55;;
43098;SDS011;28715;51.988;6.020;2022-11-06T15:25:49;4.25;;;1.40;;
43098;SDS011;28715;51.988;6.020;2022-11-06T15:28:21;5.63;;;1.45;;
43098;SDS011;28715;51.988;6.020;2022-11-06T15:30:51;6.55;;;1.48;;
43098;SDS011;28715;51.988;6.020;2022-11-06T15:36:05;6.25;;;2.05;;
43098;SDS011;28715;51.988;6.020;2022-11-06T15:38:38;6.18;;;2.60;;
43098;SDS011;28715;51.988;6.020;2022-11-06T15:41:10;10.05;;;2.45;;
43098;SDS011;28715;51.988;6.020;2022-11-06T15:43:43;9.90;;;3.88;;
43098;SDS011;28715;51.988;6.020;2022-11-06T15:48:36;19.30;;;7.07;;
43098;SDS011;28715;51.988;6.020;2022-11-06T15:51:03;8.70;;;3.28;;
43098;SDS011;28715;51.988;6.020;2022-11-06T15:53:53;15.00;;;5.28;;
43098;SDS011;28715;51.988;6.020;2022-11-06T15:56:33;6.20;;;2.72;;
43098;SDS011;28715;51.988;6.020;2022-11-06T15:59:12;6.22;;;1.67;;
43098;SDS011;28715;51.988;6.020;2022-11-06T16:01:45;5.55;;;1.80;;
43098;SDS011;28715;51.988;6.020;2022-11-06T16:04:13;7.25;;;4.43;;
43098;SDS011;28715;51.988;6.020;2022-11-06T16:06:43;6.38;;;3.22;;
43098;SDS011;28715;51.988;6.020;2022-11-06T16:09:32;9.35;;;4.07;;
43098;SDS011;28715;51.988;6.020;2022-11-06T16:11:59;7.13;;;3.88;;
43098;SDS011;28715;51.988;6.020;2022-11-06T16:14:28;5.93;;;2.55;;
43098;SDS011;28715;51.988;6.020;2022-11-06T16:16:54;6.78;;;4.47;;
43098;SDS011;28715;51.988;6.020;2022-11-06T16:21:50;7.57;;;3.28;;
43098;SDS011;28715;51.988;6.020;2022-11-06T16:24:32;9.18;;;5.03;;
43098;SDS011;28715;51.988;6.020;2022-11-06T16:29:37;5.63;;;2.00;;
43098;SDS011;28715;51.988;6.020;2022-11-06T16:32:07;6.07;;;2.05;;
43098;SDS011;28715;51.988;6.020;2022-11-06T16:34:48;4.68;;;1.38;;
43098;SDS011;28715;51.988;6.020;2022-11-06T16:39:48;5.50;;;2.67;;
43098;SDS011;28715;51.988;6.020;2022-11-06T16:47:42;5.50;;;2.35;;
43098;SDS011;28715;51.988;6.020;2022-11-06T16:53:27;6.78;;;1.88;;
43098;SDS011;28715;51.988;6.020;2022-11-06T16:55:59;5.15;;;2.13;;
43098;SDS011;28715;51.988;6.020;2022-11-06T16:58:31;5.78;;;1.95;;
43098;SDS011;28715;51.988;6.020;2022-11-06T17:01:19;7.72;;;2.90;;
43098;SDS011;28715;51.988;6.020;2022-11-06T17:03:46;6.43;;;2.20;;
43098;SDS011;28715;51.988;6.020;2022-11-06T17:06:19;5.78;;;2.53;;
43098;SDS011;28715;51.988;6.020;2022-11-06T17:08:57;4.63;;;2.05;;
43098;SDS011;28715;51.988;6.020;2022-11-06T17:11:28;5.80;;;2.63;;
43098;SDS011;28715;51.988;6.020;2022-11-06T17:13:54;5.47;;;2.80;;
43098;SDS011;28715;51.988;6.020;2022-11-06T17:16:22;7.77;;;3.90;;
43098;SDS011;28715;51.988;6.020;2022-11-06T17:18:50;8.45;;;3.47;;
43098;SDS011;28715;51.988;6.020;2022-11-06T17:21:17;7.22;;;4.18;;
43098;SDS011;28715;51.988;6.020;2022-11-06T17:23:47;7.72;;;4.45;;
43098;SDS011;28715;51.988;6.020;2022-11-06T17:26:29;8.63;;;4.22;;
43098;SDS011;28715;51.988;6.020;2022-11-06T17:28:56;6.95;;;4.00;;
43098;SDS011;28715;51.988;6.020;2022-11-06T17:31:25;6.00;;;3.60;;
43098;SDS011;28715;51.988;6.020;2022-11-06T17:33:51;7.15;;;3.40;;
43098;SDS011;28715;51.988;6.020;2022-11-06T17:38:48;7.70;;;3.38;;
43098;SDS011;28715;51.988;6.020;2022-11-06T17:41:14;6.37;;;3.50;;
43098;SDS011;28715;51.988;6.020;2022-11-06T17:43:57;8.63;;;3.42;;
43098;SDS011;28715;51.988;6.020;2022-11-06T17:46:25;8.38;;;3.25;;
43098;SDS011;28715;51.988;6.020;2022-11-06T17:48:51;5.90;;;2.88;;
43098;SDS011;28715;51.988;6.020;2022-11-06T17:51:18;6.40;;;2.65;;
43098;SDS011;28715;51.988;6.020;2022-11-06T17:54:02;7.72;;;2.60;;
43098;SDS011;28715;51.988;6.020;2022-11-06T17:56:27;6.03;;;2.77;;